| time (UTC) | temp F | wind direction | speed MPH | gust MPH | rain 1hr in | rain 24hr in | rain mn in | humidity % | barometer mb |
| 20260506044504 | 56 | 350 | 7.0 | 18.0 | 0.40 | 0.85 | 0.27 | 99 | 1004.1 |
| 20260506044004 | 56 | 321 | 6.0 | 17.0 | 0.41 | 0.83 | 0.25 | 99 | 1004.1 |
| 20260506043506 | 56 | 346 | 7.0 | 17.0 | 0.40 | 0.78 | 0.20 | 99 | 1004.4 |
| 20260506043004 | 56 | 271 | 5.0 | 12.0 | 0.41 | 0.74 | 0.17 | 99 | 1004.3 |
| 20260506042504 | 56 | 10 | 3.0 | 8.0 | 0.40 | 0.71 | 0.13 | 99 | 1004.5 |
| 20260506041005 | 56 | 228 | 0.0 | 1.0 | 0.41 | 0.64 | 0.06 | 99 | 1004.3 |
| 20260506040507 | 56 | 202 | 0.0 | 1.0 | 0.41 | 0.61 | 0.04 | 99 | 1004.5 |
| 20260506040004 | 56 | 348 | 0.0 | 5.0 | 0.45 | 0.58 | 0.00 | 99 | 1004.8 |
| 20260506035504 | 56 | 310 | 0.0 | 5.0 | 0.46 | 0.54 | 0.54 | 99 | 1004.9 |
| 20260506035004 | 56 | 319 | 0.0 | 2.0 | 0.46 | 0.50 | 0.50 | 99 | 1004.8 |
| 20260506034504 | 56 | 328 | 0.0 | 3.0 | 0.43 | 0.45 | 0.45 | 99 | 1004.8 |
| 20260506034004 | 56 | 270 | 0.0 | 3.0 | 0.41 | 0.43 | 0.43 | 99 | 1004.9 |
| 20260506033507 | 56 | 284 | 1.0 | 3.0 | 0.39 | 0.39 | 0.39 | 99 | 1004.9 |
| 20260506033004 | 56 | 264 | 0.0 | 1.0 | 0.33 | 0.33 | 0.33 | 99 | 1005.0 |
| 20260506032504 | 56 | 288 | 0.0 | 5.0 | 0.31 | 0.31 | 0.31 | 99 | 1004.8 |
| 20260506032004 | 56 | 301 | 0.0 | 5.0 | 0.30 | 0.30 | 0.30 | 99 | 1004.7 |
| 20260506031504 | 56 | 307 | 1.0 | 6.0 | 0.26 | 0.26 | 0.26 | 99 | 1005.0 |
| 20260506031004 | 56 | 17 | 1.0 | 9.0 | 0.22 | 0.22 | 0.22 | 99 | 1004.9 |
| 20260506030505 | 56 | 25 | 2.0 | 10.0 | 0.20 | 0.20 | 0.20 | 99 | 1004.5 |
| 20260506025005 | 58 | 331 | 4.0 | 10.0 | 0.04 | 0.04 | 0.04 | 93 | 1004.8 |
| 20260506024504 | 60 | 292 | 2.0 | 6.0 | 0.02 | 0.02 | 0.02 | 89 | 1004.8 |
| 20260506024005 | 60 | 66 | 2.0 | 8.0 | 0.01 | 0.01 | 0.01 | 87 | 1004.6 |
| 20260506023505 | 61 | 307 | 2.0 | 12.0 | 0.00 | 0.00 | 0.00 | 85 | 1004.5 |
| 20260506023007 | 61 | 229 | 3.0 | 12.0 | 0.00 | 0.00 | 0.00 | 86 | 1004.2 |
| 20260506022504 | 60 | 101 | 3.0 | 17.0 | 0.00 | 0.00 | 0.00 | 85 | 1004.9 |
| 20260506022005 | 60 | 315 | 3.0 | 17.0 | 0.00 | 0.00 | 0.00 | 87 | 1003.9 |
| 20260506021504 | 61 | 256 | 6.0 | 17.0 | 0.00 | 0.00 | 0.00 | 86 | 1003.6 |
| 20260506021005 | 61 | 3 | 6.0 | 16.0 | 0.00 | 0.00 | 0.00 | 84 | 1004.7 |
| 20260506020504 | 60 | 297 | 5.0 | 9.0 | 0.00 | 0.00 | 0.00 | 85 | 1004.7 |
| 20260506020004 | 60 | 50 | 3.0 | 9.0 | 0.00 | 0.00 | 0.00 | 86 | 1004.0 |
| 20260506015505 | 59 | 338 | 1.0 | 2.0 | 0.00 | 0.00 | 0.00 | 90 | 1004.7 |
| 20260506015004 | 59 | 113 | 1.0 | 2.0 | 0.00 | 0.00 | 0.00 | 90 | 1004.4 |
| 20260506014505 | 59 | 8 | 0.0 | 3.0 | 0.00 | 0.00 | 0.00 | 90 | 1004.8 |
| 20260506014005 | 59 | 307 | 0.0 | 5.0 | 0.00 | 0.00 | 0.00 | 90 | 1004.7 |
| 20260506013505 | 59 | 297 | 0.0 | 7.0 | 0.00 | 0.00 | 0.00 | 90 | 1004.8 |
| 20260506013004 | 59 | 0 | 3.0 | 7.0 | 0.00 | 0.00 | 0.00 | 90 | 1005.3 |
| 20260506012504 | 59 | 299 | 2.0 | 7.0 | 0.00 | 0.00 | 0.00 | 90 | 1005.4 |
| 20260506012005 | 59 | 42 | 3.0 | 7.0 | 0.00 | 0.00 | 0.00 | 90 | 1005.2 |
| 20260506011505 | 60 | 350 | 3.0 | 7.0 | 0.00 | 0.00 | 0.00 | 88 | 1005.2 |
| 20260506011005 | 60 | 337 | 3.0 | 9.0 | 0.00 | 0.00 | 0.00 | 88 | 1005.2 |
| 20260506010505 | 60 | 158 | 3.0 | 9.0 | 0.00 | 0.00 | 0.00 | 88 | 1005.1 |
| 20260506010004 | 60 | 223 | 4.0 | 9.0 | 0.00 | 0.00 | 0.00 | 88 | 1005.1 |
| 20260506005506 | 60 | 282 | 3.0 | 7.0 | 0.00 | 0.00 | 0.00 | 88 | 1005.2 |
| 20260506003507 | 59 | 69 | 5.0 | 12.0 | 0.00 | 0.00 | 0.00 | 90 | 1005.4 |
| 20260506003005 | 59 | 98 | 5.0 | 10.0 | 0.00 | 0.00 | 0.00 | 90 | 1005.5 |
| 20260506002504 | 60 | 338 | 4.0 | 13.0 | 0.00 | 0.00 | 0.00 | 90 | 1005.5 |
| 20260506002005 | 61 | 112 | 5.0 | 16.0 | 0.00 | 0.00 | 0.00 | 86 | 1005.5 |
| 20260506001504 | 61 | 315 | 6.0 | 16.0 | 0.00 | 0.00 | 0.00 | 86 | 1005.4 |
| 20260506001004 | 61 | 34 | 6.0 | 16.0 | 0.00 | 0.00 | 0.00 | 85 | 1005.3 |
| 20260506000505 | 61 | 292 | 5.0 | 15.0 | 0.00 | 0.00 | 0.00 | 85 | 1005.5 |
| 20260506000005 | 61 | 270 | 6.0 | 15.0 | 0.00 | 0.00 | 0.00 | 86 | 1005.5 |
| 20260505235507 | 61 | 338 | 5.0 | 13.0 | 0.00 | 0.00 | 0.00 | 86 | 1005.4 |
| 20260505235007 | 61 | 330 | 5.0 | 13.0 | 0.00 | 0.00 | 0.00 | 85 | 1005.3 |
| 20260505234504 | 62 | 327 | 5.0 | 13.0 | 0.00 | 0.00 | 0.00 | 84 | 1005.5 |
| 20260505234005 | 62 | 324 | 5.0 | 13.0 | 0.00 | 0.00 | 0.00 | 84 | 1005.2 |
| 20260505233505 | 61 | 341 | 4.0 | 14.0 | 0.00 | 0.00 | 0.00 | 86 | 1005.4 |
| 20260505233005 | 62 | 24 | 5.0 | 14.0 | 0.00 | 0.00 | 0.00 | 85 | 1005.6 |
| 20260505232505 | 62 | 298 | 5.0 | 12.0 | 0.00 | 0.00 | 0.00 | 84 | 1005.7 |
| 20260505232004 | 61 | 131 | 5.0 | 12.0 | 0.00 | 0.00 | 0.00 | 86 | 1005.6 |
| 20260505231505 | 60 | 338 | 4.0 | 7.0 | 0.00 | 0.00 | 0.00 | 88 | 1006.0 |
| 20260505231005 | 61 | 295 | 3.0 | 8.0 | 0.00 | 0.00 | 0.00 | 86 | 1005.8 |
| 20260505230507 | 60 | 87 | 2.0 | 8.0 | 0.00 | 0.00 | 0.00 | 88 | 1005.7 |
| 20260505230004 | 61 | 264 | 3.0 | 8.0 | 0.00 | 0.00 | 0.00 | 88 | 1006.0 |
| 20260505225505 | 61 | 320 | 2.0 | 5.0 | 0.00 | 0.00 | 0.00 | 86 | 1005.9 |
| 20260505225005 | 61 | 336 | 2.0 | 6.0 | 0.00 | 0.00 | 0.00 | 87 | 1005.9 |
| 20260505224505 | 61 | 29 | 1.0 | 6.0 | 0.00 | 0.00 | 0.00 | 88 | 1005.9 |
| 20260505224004 | 61 | 9 | 3.0 | 6.0 | 0.00 | 0.00 | 0.00 | 88 | 1006.0 |
| 20260505223004 | 60 | 250 | 2.0 | 5.0 | 0.00 | 0.00 | 0.00 | 93 | 1005.8 |
| 20260505215007 | 60 | 35 | 6.0 | 10.0 | 0.00 | 0.00 | 0.00 | 93 | 1006.2 |
| 20260505214507 | 60 | 158 | 4.0 | 10.0 | 0.00 | 0.00 | 0.00 | 93 | 1006.2 |
| 20260505214005 | 60 | 300 | 5.0 | 10.0 | 0.00 | 0.00 | 0.00 | 93 | 1006.2 |
| 20260505213505 | 60 | 35 | 5.0 | 10.0 | 0.00 | 0.00 | 0.00 | 93 | 1006.1 |
| 20260505213004 | 60 | 349 | 5.0 | 9.0 | 0.00 | 0.00 | 0.00 | 94 | 1006.1 |
| 20260505212504 | 60 | 37 | 4.0 | 8.0 | 0.00 | 0.00 | 0.00 | 94 | 1005.9 |
| 20260505212004 | 60 | 255 | 4.0 | 10.0 | 0.00 | 0.00 | 0.00 | 94 | 1006.0 |
| 20260505211504 | 59 | 206 | 4.0 | 10.0 | 0.00 | 0.00 | 0.00 | 94 | 1005.8 |
| 20260505211004 | 60 | 350 | 3.0 | 10.0 | 0.00 | 0.00 | 0.00 | 93 | 1005.7 |
| 20260505210504 | 60 | 323 | 4.0 | 9.0 | 0.00 | 0.00 | 0.00 | 93 | 1006.1 |
| 20260505210007 | 59 | 337 | 3.0 | 6.0 | 0.00 | 0.00 | 0.00 | 93 | 1005.9 |
| 20260505205504 | 60 | 339 | 3.0 | 7.0 | 0.00 | 0.00 | 0.00 | 93 | 1006.3 |
| 20260505205004 | 60 | 253 | 3.0 | 7.0 | 0.00 | 0.00 | 0.00 | 93 | 1006.1 |
| 20260505204504 | 60 | 347 | 1.0 | 6.0 | 0.00 | 0.00 | 0.00 | 93 | 1006.0 |
| 20260505204005 | 60 | 68 | 2.0 | 6.0 | 0.00 | 0.00 | 0.00 | 93 | 1006.3 |
| 20260505203504 | 60 | 73 | 2.0 | 8.0 | 0.00 | 0.00 | 0.00 | 93 | 1006.4 |
| 20260505202505 | 60 | 22 | 3.0 | 7.0 | 0.00 | 0.00 | 0.00 | 93 | 1006.4 |
| 20260505202004 | 60 | 338 | 3.0 | 7.0 | 0.00 | 0.00 | 0.00 | 93 | 1006.4 |
| 20260505201507 | 60 | 356 | 3.0 | 7.0 | 0.00 | 0.00 | 0.00 | 93 | 1006.2 |
| 20260505201004 | 60 | 216 | 2.0 | 5.0 | 0.00 | 0.00 | 0.00 | 92 | 1006.4 |
| 20260505200504 | 60 | 326 | 3.0 | 5.0 | 0.00 | 0.00 | 0.00 | 92 | 1006.2 |
| 20260505200004 | 60 | 330 | 2.0 | 6.0 | 0.00 | 0.00 | 0.00 | 92 | 1006.2 |
| 20260505195504 | 60 | 306 | 2.0 | 6.0 | 0.00 | 0.00 | 0.00 | 92 | 1006.3 |
| 20260505195004 | 60 | 355 | 2.0 | 7.0 | 0.00 | 0.00 | 0.00 | 92 | 1006.2 |
| 20260505194504 | 60 | 59 | 3.0 | 8.0 | 0.00 | 0.00 | 0.00 | 92 | 1006.3 |
| 20260505194005 | 60 | 61 | 3.0 | 8.0 | 0.00 | 0.00 | 0.00 | 91 | 1006.3 |
| 20260505193504 | 60 | 271 | 5.0 | 8.0 | 0.00 | 0.00 | 0.00 | 91 | 1006.5 |
| 20260505193009 | 60 | 27 | 3.0 | 8.0 | 0.00 | 0.00 | 0.00 | 92 | 1006.4 |
| 20260505192505 | 60 | 325 | 2.0 | 6.0 | 0.00 | 0.00 | 0.00 | 91 | 1006.5 |
| 20260505192004 | 60 | 239 | 2.0 | 5.0 | 0.00 | 0.00 | 0.00 | 92 | 1006.5 |
| 20260505191504 | 60 | 355 | 1.0 | 5.0 | 0.00 | 0.00 | 0.00 | 92 | 1006.3 |
| 20260505191004 | 60 | 332 | 1.0 | 5.0 | 0.00 | 0.00 | 0.00 | 92 | 1006.4 |
| 20260505190504 | 60 | 338 | 1.0 | 3.0 | 0.00 | 0.00 | 0.00 | 92 | 1006.4 |
| 20260505190005 | 59 | 342 | 2.0 | 3.0 | 0.00 | 0.00 | 0.00 | 92 | 1006.5 |
| 20260505185505 | 59 | 349 | 0.0 | 2.0 | 0.00 | 0.00 | 0.00 | 92 | 1006.2 |
| 20260505185005 | 58 | 17 | 0.0 | 3.0 | 0.00 | 0.00 | 0.00 | 93 | 1006.4 |
| 20260505184007 | 59 | 296 | 1.0 | 3.0 | 0.00 | 0.00 | 0.00 | 92 | 1006.6 |
| 20260505183504 | 59 | 43 | 1.0 | 5.0 | 0.00 | 0.00 | 0.00 | 91 | 1006.5 |
| 20260505183005 | 60 | 3 | 1.0 | 5.0 | 0.00 | 0.00 | 0.00 | 89 | 1006.5 |
| 20260505182504 | 61 | 299 | 0.0 | 2.0 | 0.00 | 0.00 | 0.00 | 88 | 1006.3 |
| 20260505182004 | 60 | 281 | 0.0 | 3.0 | 0.00 | 0.00 | 0.00 | 89 | 1006.4 |
| 20260505181504 | 59 | 333 | 1.0 | 3.0 | 0.00 | 0.00 | 0.00 | 91 | 1006.4 |
| 20260505181004 | 59 | 10 | 1.0 | 3.0 | 0.00 | 0.00 | 0.00 | 91 | 1006.6 |
| 20260505180506 | 59 | 14 | 1.0 | 3.0 | 0.00 | 0.00 | 0.00 | 90 | 1006.8 |
| 20260505180004 | 60 | 348 | 1.0 | 5.0 | 0.00 | 0.00 | 0.00 | 89 | 1006.8 |
| 20260505175504 | 60 | 11 | 1.0 | 5.0 | 0.00 | 0.00 | 0.00 | 89 | 1006.7 |
| 20260505175005 | 60 | 350 | 2.0 | 5.0 | 0.00 | 0.00 | 0.00 | 90 | 1006.9 |
| 20260505174504 | 59 | 22 | 2.0 | 5.0 | 0.00 | 0.00 | 0.00 | 90 | 1006.7 |
| 20260505174004 | 60 | 351 | 2.0 | 5.0 | 0.00 | 0.00 | 0.00 | 89 | 1006.6 |
| 20260505173504 | 60 | 310 | 1.0 | 5.0 | 0.00 | 0.00 | 0.00 | 89 | 1006.8 |
| 20260505173005 | 60 | 21 | 2.0 | 5.0 | 0.00 | 0.00 | 0.00 | 89 | 1006.7 |
| 20260505172504 | 60 | 306 | 3.0 | 5.0 | 0.00 | 0.00 | 0.00 | 89 | 1006.6 |
| 20260505172005 | 60 | 340 | 2.0 | 5.0 | 0.00 | 0.00 | 0.00 | 88 | 1006.7 |
| 20260505171505 | 60 | 316 | 2.0 | 5.0 | 0.00 | 0.00 | 0.00 | 89 | 1006.7 |
| 20260505171004 | 60 | 341 | 1.0 | 5.0 | 0.00 | 0.00 | 0.00 | 89 | 1006.7 |
| 20260505170504 | 60 | 310 | 1.0 | 8.0 | 0.00 | 0.00 | 0.00 | 89 | 1006.7 |
| 20260505170007 | 60 | 64 | 2.0 | 8.0 | 0.00 | 0.00 | 0.00 | 89 | 1006.7 |
| 20260505165504 | 60 | 49 | 4.0 | 8.0 | 0.00 | 0.00 | 0.00 | 87 | 1006.6 |
| 20260505165004 | 61 | 154 | 4.0 | 9.0 | 0.00 | 0.00 | 0.00 | 86 | 1006.7 |
| 20260505164505 | 61 | 281 | 4.0 | 9.0 | 0.00 | 0.00 | 0.00 | 85 | 1006.6 |
| 20260505153005 | 62 | 177 | 2.0 | 6.0 | 0.00 | 0.00 | 0.00 | 84 | 1006.9 |
| 20260505152504 | 62 | 357 | 2.0 | 5.0 | 0.00 | 0.00 | 0.00 | 84 | 1006.8 |
| 20260505140504 | 60 | 61 | 0.0 | 2.0 | 0.00 | 0.00 | 0.00 | 86 | 1007.1 |
| 20260505115508 | 55 | 117 | 0.0 | 1.0 | 0.00 | 0.00 | 0.00 | 99 | 1008.1 |
| 20260505115005 | 55 | 112 | 0.0 | 1.0 | 0.00 | 0.00 | 0.00 | 99 | 1008.2 |
| 20260505114504 | 55 | 112 | 0.0 | 1.0 | 0.00 | 0.00 | 0.00 | 99 | 1008.3 |
| 20260505113504 | 55 | 135 | 0.0 | 0.0 | 0.00 | 0.00 | 0.00 | 99 | 1008.9 |
| 20260505113005 | 55 | 131 | 0.0 | 0.0 | 0.00 | 0.00 | 0.00 | 99 | 1009.0 |
| 20260505112504 | 55 | 135 | 0.0 | 0.0 | 0.00 | 0.00 | 0.00 | 99 | 1008.8 |
| 20260505112004 | 55 | 135 | 0.0 | 0.0 | 0.00 | 0.00 | 0.00 | 99 | 1008.9 |
| 20260505111507 | 55 | 135 | 0.0 | 0.0 | 0.00 | 0.00 | 0.00 | 99 | 1008.7 |
| 20260505111005 | 54 | 202 | 0.0 | 1.0 | 0.00 | 0.00 | 0.00 | 99 | 1008.8 |
| 20260505110504 | 54 | 202 | 0.0 | 2.0 | 0.00 | 0.00 | 0.00 | 99 | 1008.8 |
| 20260505102005 | 55 | 112 | 0.0 | 1.0 | 0.00 | 0.00 | 0.00 | 99 | 1008.4 |
| 20260505101505 | 54 | 94 | 0.0 | 0.0 | 0.00 | 0.00 | 0.00 | 99 | 1008.9 |
| 20260505101004 | 54 | 133 | 0.0 | 0.0 | 0.00 | 0.00 | 0.00 | 99 | 1008.9 |
| 20260505100505 | 54 | 135 | 0.0 | 1.0 | 0.00 | 0.00 | 0.00 | 99 | 1008.6 |
| 20260505100007 | 54 | 135 | 0.0 | 1.0 | 0.00 | 0.00 | 0.00 | 99 | 1008.7 |
| 20260505095505 | 54 | 151 | 0.0 | 0.0 | 0.00 | 0.00 | 0.00 | 99 | 1008.8 |
| 20260505094005 | 55 | 112 | 0.0 | 1.0 | 0.00 | 0.00 | 0.00 | 99 | 1008.8 |
| 20260505093505 | 55 | 135 | 1.0 | 1.0 | 0.00 | 0.01 | 0.00 | 99 | 1008.9 |
| 20260505093004 | 54 | 140 | 0.0 | 1.0 | 0.00 | 0.01 | 0.00 | 99 | 1008.8 |
| 20260505092505 | 54 | 90 | 0.0 | 0.0 | 0.00 | 0.01 | 0.00 | 99 | 1008.9 |
| 20260505092007 | 54 | 112 | 0.0 | 0.0 | 0.00 | 0.01 | 0.00 | 99 | 1008.8 |
| 20260505091504 | 54 | 112 | 0.0 | 0.0 | 0.00 | 0.01 | 0.00 | 99 | 1008.8 |
| 20260505091005 | 54 | 135 | 0.0 | 0.0 | 0.00 | 0.01 | 0.00 | 99 | 1008.9 |
| 20260505090504 | 54 | 135 | 0.0 | 0.0 | 0.00 | 0.01 | 0.00 | 99 | 1009.0 |
| 20260505090005 | 54 | 112 | 0.0 | 0.0 | 0.00 | 0.01 | 0.00 | 99 | 1009.2 |
| 20260505085504 | 54 | 112 | 0.0 | 0.0 | 0.00 | 0.01 | 0.00 | 99 | 1009.4 |
| 20260505085005 | 54 | 101 | 0.0 | 0.0 | 0.00 | 0.01 | 0.00 | 99 | 1009.2 |
| 20260505084505 | 55 | 135 | 0.0 | 0.0 | 0.00 | 0.01 | 0.00 | 99 | 1009.2 |
| 20260505083507 | 55 | 135 | 0.0 | 1.0 | 0.00 | 0.01 | 0.00 | 99 | 1009.2 |
| 20260505083005 | 55 | 105 | 0.0 | 1.0 | 0.00 | 0.02 | 0.00 | 99 | 1009.4 |
| 20260505082505 | 55 | 112 | 0.0 | 1.0 | 0.00 | 0.02 | 0.00 | 99 | 1009.3 |
| 20260505082004 | 55 | 147 | 0.0 | 1.0 | 0.00 | 0.02 | 0.00 | 99 | 1009.3 |
| 20260505081505 | 55 | 135 | 0.0 | 1.0 | 0.00 | 0.02 | 0.00 | 99 | 1009.3 |
| 20260505081004 | 55 | 291 | 0.0 | 2.0 | 0.00 | 0.02 | 0.00 | 99 | 1009.6 |
| 20260505080505 | 55 | 147 | 0.0 | 2.0 | 0.00 | 0.02 | 0.00 | 99 | 1009.3 |
| 20260505080004 | 55 | 174 | 1.0 | 2.0 | 0.00 | 0.02 | 0.00 | 99 | 1009.2 |
| 20260505075507 | 55 | 135 | 0.0 | 1.0 | 0.00 | 0.02 | 0.00 | 99 | 1009.2 |
| 20260505075005 | 55 | 135 | 0.0 | 1.0 | 0.00 | 0.02 | 0.00 | 99 | 1009.2 |
| 20260505074505 | 54 | 225 | 0.0 | 0.0 | 0.00 | 0.02 | 0.00 | 99 | 1009.1 |
| 20260505074005 | 54 | 135 | 0.0 | 0.0 | 0.00 | 0.02 | 0.00 | 99 | 1009.0 |
| 20260505073505 | 54 | 266 | 0.0 | 0.0 | 0.00 | 0.02 | 0.00 | 99 | 1008.9 |
| 20260505073005 | 54 | 22 | 0.0 | 0.0 | 0.00 | 0.02 | 0.00 | 99 | 1008.8 |
| 20260505072504 | 54 | 22 | 0.0 | 0.0 | 0.00 | 0.02 | 0.00 | 99 | 1008.7 |
| 20260505072004 | 54 | 22 | 0.0 | 0.0 | 0.00 | 0.02 | 0.00 | 99 | 1008.8 |
| 20260505071504 | 54 | 45 | 0.0 | 1.0 | 0.00 | 0.02 | 0.00 | 99 | 1008.6 |
| 20260505071004 | 55 | 22 | 0.0 | 1.0 | 0.00 | 0.02 | 0.00 | 99 | 1008.6 |
| 20260505070507 | 55 | 20 | 0.0 | 1.0 | 0.00 | 0.02 | 0.00 | 99 | 1008.9 |
| 20260505070005 | 55 | 338 | 0.0 | 0.0 | 0.00 | 0.02 | 0.00 | 99 | 1009.0 |
| 20260505065505 | 55 | 290 | 0.0 | 0.0 | 0.00 | 0.02 | 0.00 | 99 | 1008.9 |
| 20260505065004 | 55 | 292 | 0.0 | 1.0 | 0.00 | 0.02 | 0.00 | 99 | 1009.0 |
| 20260505064504 | 55 | 338 | 0.0 | 1.0 | 0.00 | 0.02 | 0.00 | 99 | 1008.7 |
| 20260505064004 | 55 | 315 | 0.0 | 1.0 | 0.00 | 0.02 | 0.00 | 99 | 1008.9 |
| 20260505055504 | 54 | 90 | 0.0 | 0.0 | 0.00 | 0.02 | 0.00 | 99 | 1009.2 |
| 20260505055005 | 54 | 112 | 0.0 | 0.0 | 0.00 | 0.02 | 0.00 | 99 | 1009.4 |